createdAt,value
2018-08-28T00:01:20.483Z,99.90
2018-08-28T00:08:43.285Z,99.90
2018-08-28T00:11:10.919Z,99.90
2018-08-28T00:13:38.523Z,99.90
2018-08-28T00:16:06.296Z,99.90
2018-08-28T00:18:33.899Z,99.90
2018-08-28T00:21:01.549Z,99.90
2018-08-28T00:28:24.247Z,99.90
2018-08-28T00:30:51.914Z,99.90
2018-08-28T00:33:19.546Z,99.90
2018-08-28T00:38:14.729Z,99.90
2018-08-28T00:40:42.349Z,99.90
2018-08-28T00:43:09.984Z,99.90
2018-08-28T00:45:37.604Z,99.90
2018-08-28T00:50:32.752Z,99.90
2018-08-28T00:53:00.380Z,99.90
2018-08-28T00:55:28.005Z,99.90
2018-08-28T00:57:55.654Z,99.90
2018-08-28T01:00:23.272Z,99.90
2018-08-28T01:02:50.949Z,99.90
2018-08-28T01:05:19.071Z,99.90
2018-08-28T01:10:14.256Z,99.90
2018-08-28T01:12:41.925Z,99.90
2018-08-28T01:17:37.132Z,99.90
2018-08-28T01:20:05.232Z,99.90
2018-08-28T01:22:32.819Z,99.90
2018-08-28T01:25:00.451Z,99.90
2018-08-28T01:27:28.145Z,99.90
2018-08-28T01:29:55.795Z,99.90
2018-08-28T01:34:51.050Z,99.90
2018-08-28T01:42:18.465Z,99.90
2018-08-28T01:44:46.202Z,99.90
2018-08-28T01:47:13.816Z,99.90
2018-08-28T01:52:09.066Z,99.90
2018-08-28T01:54:36.689Z,99.90
2018-08-28T01:57:04.429Z,99.90
2018-08-28T02:01:59.491Z,99.90
2018-08-28T02:04:27.119Z,99.90
2018-08-28T02:09:22.274Z,99.90
2018-08-28T02:11:49.964Z,99.90
2018-08-28T02:14:17.595Z,99.90
2018-08-28T02:19:12.796Z,99.90
2018-08-28T02:24:07.922Z,99.90
2018-08-28T02:26:35.668Z,99.90
2018-08-28T02:31:30.915Z,99.90
2018-08-28T02:38:53.735Z,99.90
2018-08-28T02:41:21.419Z,99.90
2018-08-28T02:43:49.049Z,99.90
2018-08-28T02:46:16.702Z,99.90
2018-08-28T02:48:44.325Z,99.90
2018-08-28T02:51:11.912Z,99.90
2018-08-28T02:53:39.532Z,99.90
2018-08-28T02:56:07.132Z,99.90
2018-08-28T02:58:34.852Z,99.90
2018-08-28T03:03:30.036Z,99.90
2018-08-28T03:05:57.737Z,99.90
2018-08-28T03:08:25.381Z,99.90
2018-08-28T03:10:53.071Z,99.90
2018-08-28T03:13:20.675Z,99.90
2018-08-28T03:15:48.424Z,99.90
2018-08-28T03:20:43.581Z,99.90
2018-08-28T03:23:11.161Z,99.90
2018-08-28T03:25:38.765Z,99.90
2018-08-28T03:28:06.452Z,99.90
2018-08-28T03:30:34.079Z,99.90
2018-08-28T03:33:01.690Z,99.90
2018-08-28T03:35:29.345Z,99.90
2018-08-28T03:37:56.972Z,99.90
2018-08-28T03:40:24.676Z,99.90
2018-08-28T03:42:52.250Z,99.90
2018-08-28T03:45:19.896Z,99.90
2018-08-28T03:47:47.521Z,99.90
2018-08-28T03:50:15.156Z,99.90
2018-08-28T03:52:42.805Z,99.90
2018-08-28T03:55:10.407Z,99.90
2018-08-28T03:57:38.025Z,99.90
2018-08-28T04:05:00.773Z,99.90
2018-08-28T04:07:28.382Z,99.90
2018-08-28T04:09:56.002Z,99.90
2018-08-28T04:12:23.646Z,99.90
2018-08-28T04:14:51.250Z,99.90
2018-08-28T04:19:46.375Z,99.90
2018-08-28T04:22:13.972Z,99.90
2018-08-28T04:24:41.603Z,99.90
2018-08-28T04:27:09.287Z,99.90
2018-08-28T04:32:04.526Z,99.90
2018-08-28T04:34:32.172Z,99.90
2018-08-28T04:36:59.813Z,99.90
2018-08-28T04:39:27.482Z,99.90
2018-08-28T04:41:55.122Z,99.90
2018-08-28T04:46:50.227Z,99.90
2018-08-28T04:49:17.833Z,99.90
2018-08-28T04:51:45.489Z,99.90
2018-08-28T04:54:13.214Z,99.90
2018-08-28T04:56:40.841Z,99.90
2018-08-28T04:59:08.413Z,99.90
2018-08-28T05:01:36.086Z,99.90
2018-08-28T05:04:03.766Z,99.90
2018-08-28T05:06:31.409Z,99.90
2018-08-28T05:11:26.602Z,99.90
2018-08-28T05:13:54.207Z,99.90
2018-08-28T05:16:21.853Z,99.90
2018-08-28T05:18:49.458Z,99.90
2018-08-28T05:21:17.143Z,99.90
2018-08-28T05:23:44.769Z,99.90
2018-08-28T05:26:12.434Z,99.90
2018-08-28T05:28:40.106Z,99.90
2018-08-28T05:31:07.764Z,99.90
2018-08-28T05:36:02.889Z,99.90
2018-08-28T05:38:30.577Z,99.90
2018-08-28T05:40:58.287Z,99.90
2018-08-28T05:43:25.928Z,99.90
2018-08-28T05:45:53.540Z,99.90
2018-08-28T05:48:21.149Z,99.90
2018-08-28T05:50:48.781Z,99.90
2018-08-28T05:53:16.433Z,99.90
2018-08-28T05:55:44.101Z,99.90
2018-08-28T05:58:11.699Z,99.90
2018-08-28T06:00:39.453Z,99.90
2018-08-28T06:03:07.413Z,99.90
2018-08-28T06:05:35.044Z,99.90
2018-08-28T06:08:02.818Z,99.90
2018-08-28T06:10:30.483Z,99.90
2018-08-28T06:15:26.218Z,99.90
2018-08-28T06:17:53.909Z,99.90
2018-08-28T06:20:21.571Z,99.90
2018-08-28T06:22:49.200Z,99.90
2018-08-28T06:27:44.629Z,99.90
2018-08-28T06:30:12.278Z,99.90
2018-08-28T06:32:39.923Z,99.90
2018-08-28T06:35:07.565Z,99.90
2018-08-28T06:37:35.267Z,99.90
2018-08-28T06:40:03.102Z,99.90
2018-08-28T06:42:30.715Z,99.90
2018-08-28T06:44:58.422Z,99.90
2018-08-28T06:47:26.146Z,99.90
2018-08-28T06:49:53.843Z,99.90
2018-08-28T06:54:48.981Z,99.90
2018-08-28T06:57:16.652Z,99.90
2018-08-28T07:02:11.825Z,99.90
2018-08-28T07:04:39.657Z,99.90
2018-08-28T07:07:07.688Z,99.90
2018-08-28T07:09:35.323Z,99.90
2018-08-28T07:12:02.985Z,99.90
2018-08-28T07:14:30.698Z,99.90
2018-08-28T07:16:58.310Z,99.90
2018-08-28T07:24:21.118Z,99.90
2018-08-28T07:26:48.707Z,99.90
2018-08-28T07:29:16.407Z,99.90
2018-08-28T07:34:11.536Z,99.90
2018-08-28T07:41:34.714Z,99.90
2018-08-28T07:44:02.368Z,99.90
2018-08-28T07:46:30.070Z,99.90
2018-08-28T07:48:57.725Z,99.90
2018-08-28T07:51:25.329Z,99.90
2018-08-28T07:53:52.999Z,99.90
2018-08-28T07:58:48.159Z,99.90
2018-08-28T08:01:15.905Z,99.90
2018-08-28T08:06:11.040Z,99.90
2018-08-28T08:08:38.734Z,99.90
2018-08-28T08:11:06.414Z,99.90
2018-08-28T08:13:34.016Z,99.90
2018-08-28T08:20:56.732Z,99.90
2018-08-28T08:25:51.899Z,99.90
2018-08-28T08:28:19.578Z,99.90
2018-08-28T08:30:47.210Z,99.90
2018-08-28T08:33:14.919Z,99.90
2018-08-28T08:35:42.523Z,99.90
2018-08-28T08:38:10.243Z,99.90
2018-08-28T08:40:37.905Z,99.90
2018-08-28T08:43:05.579Z,97.40
2018-08-28T08:45:33.219Z,97.00
2018-08-28T08:48:00.948Z,96.60
2018-08-28T08:50:28.685Z,95.30
2018-08-28T08:52:56.307Z,92.10
2018-08-28T08:55:23.958Z,90.00
2018-08-28T08:57:51.592Z,89.00
2018-08-28T09:00:19.318Z,88.90
2018-08-28T09:02:46.920Z,82.10
2018-08-28T09:07:42.175Z,79.80
2018-08-28T09:10:09.858Z,77.70
2018-08-28T09:12:37.498Z,84.50
2018-08-28T09:15:05.212Z,81.80
2018-08-28T09:17:32.865Z,81.70
2018-08-28T09:20:00.490Z,81.40
2018-08-28T09:24:55.629Z,82.40
2018-08-28T09:27:23.273Z,83.10
2018-08-28T09:32:18.428Z,84.40
2018-08-28T09:34:46.044Z,84.30
2018-08-28T09:37:13.721Z,86.20
2018-08-28T09:42:08.975Z,82.80
2018-08-28T09:44:36.604Z,84.50
2018-08-28T09:47:04.382Z,84.50
2018-08-28T09:52:00.019Z,86.00
2018-08-28T09:54:27.694Z,85.50
2018-08-28T09:56:55.626Z,81.70
2018-08-28T09:59:23.315Z,81.10
2018-08-28T10:01:51.011Z,80.00
2018-08-28T10:04:18.668Z,78.50
2018-08-28T10:06:46.298Z,73.70
2018-08-28T10:11:42.893Z,77.20
2018-08-28T10:16:38.966Z,75.00
2018-08-28T10:19:06.777Z,70.10
2018-08-28T10:21:34.507Z,70.10
2018-08-28T10:24:02.155Z,62.40
2018-08-28T10:26:29.812Z,58.50
2018-08-28T10:28:57.456Z,57.80
2018-08-28T10:33:52.708Z,58.40
2018-08-28T10:36:20.365Z,56.30
2018-08-28T10:38:48.049Z,56.10
2018-08-28T10:41:15.723Z,51.90
2018-08-28T10:43:43.383Z,49.40
2018-08-28T10:46:11.132Z,49.40
2018-08-28T10:48:38.773Z,48.30
2018-08-28T10:51:06.522Z,47.40
2018-08-28T10:53:34.215Z,49.50
2018-08-28T10:56:01.855Z,51.10
2018-08-28T11:00:57.095Z,54.00
2018-08-28T11:03:24.743Z,53.60
2018-08-28T11:05:52.523Z,50.00
2018-08-28T11:13:15.676Z,45.80
2018-08-28T11:15:43.334Z,45.30
2018-08-28T11:20:38.559Z,44.90
2018-08-28T11:23:06.224Z,44.80
2018-08-28T11:25:33.953Z,47.10
2018-08-28T11:28:01.583Z,48.00
2018-08-28T11:30:29.424Z,48.00
2018-08-28T11:32:57.195Z,49.70
2018-08-28T11:35:26.160Z,47.90
2018-08-28T11:37:54.249Z,48.60
2018-08-28T11:45:18.634Z,48.80
2018-08-28T11:47:52.021Z,47.60
2018-08-28T11:50:25.480Z,46.30
2018-08-28T11:55:24.074Z,50.40
2018-08-28T11:57:51.734Z,52.30
2018-08-28T12:00:20.105Z,54.00
2018-08-28T12:02:47.756Z,54.30
2018-08-28T12:10:10.801Z,55.40
2018-08-28T12:12:38.831Z,56.80
2018-08-28T12:15:06.954Z,55.00
2018-08-28T12:17:34.845Z,55.20
2018-08-28T12:20:02.639Z,53.10
2018-08-28T12:24:58.074Z,51.40
2018-08-28T12:27:25.764Z,52.00
2018-08-28T12:29:53.385Z,50.50
2018-08-28T12:34:48.586Z,51.20
2018-08-28T12:37:16.296Z,49.60
2018-08-28T12:39:43.960Z,47.10
2018-08-28T12:42:11.625Z,47.50
2018-08-28T12:44:39.441Z,50.30
2018-08-28T12:47:07.060Z,49.30
2018-08-28T12:49:34.970Z,51.10
2018-08-28T12:54:30.174Z,46.90
2018-08-28T12:56:57.878Z,47.20
2018-08-28T12:59:25.641Z,48.70
2018-08-28T13:04:20.989Z,49.20
2018-08-28T13:06:48.997Z,49.90
2018-08-28T13:09:16.604Z,49.20
2018-08-28T13:11:44.385Z,48.30
2018-08-28T13:14:12.101Z,46.90
2018-08-28T13:16:39.771Z,45.80
2018-08-28T13:19:07.599Z,47.00
2018-08-28T13:21:35.310Z,44.90
2018-08-28T13:24:03.041Z,46.20
2018-08-28T13:26:31.347Z,48.20
2018-08-28T13:28:59.064Z,46.70
2018-08-28T13:31:26.751Z,47.10
2018-08-28T13:41:17.026Z,45.30
2018-08-28T13:43:44.699Z,43.20
2018-08-28T13:46:12.369Z,41.00
2018-08-28T13:48:40.094Z,41.70
2018-08-28T13:51:07.826Z,40.30
2018-08-28T13:53:35.624Z,40.50
2018-08-28T13:56:03.504Z,42.60
2018-08-28T13:58:31.751Z,43.00
2018-08-28T14:00:59.474Z,43.20
2018-08-28T14:03:27.194Z,44.00
2018-08-28T14:05:54.906Z,44.00
2018-08-28T14:08:22.580Z,45.10
2018-08-28T14:10:50.225Z,46.20
2018-08-28T14:13:18.048Z,45.20
2018-08-28T14:15:45.626Z,45.10
2018-08-28T14:20:40.859Z,46.00
2018-08-28T14:23:08.544Z,44.20
2018-08-28T14:25:36.176Z,44.70
2018-08-28T14:28:03.970Z,45.50
2018-08-28T14:30:31.679Z,45.80
2018-08-28T14:32:59.362Z,43.40
2018-08-28T14:35:27.109Z,44.10
2018-08-28T14:37:54.760Z,43.80
2018-08-28T14:40:22.365Z,44.60
2018-08-28T14:42:50.044Z,44.60
2018-08-28T14:45:17.750Z,44.50
2018-08-28T14:47:45.434Z,44.50
2018-08-28T14:50:13.158Z,45.00
2018-08-28T14:55:08.348Z,46.40
2018-08-28T14:57:36.053Z,46.20
2018-08-28T15:02:31.782Z,46.80
2018-08-28T15:04:59.448Z,44.90
2018-08-28T15:07:27.209Z,45.10
2018-08-28T15:09:54.850Z,45.20
2018-08-28T15:12:22.575Z,44.10
2018-08-28T15:14:50.230Z,44.70
2018-08-28T15:17:17.893Z,43.70
2018-08-28T15:19:45.549Z,44.20
2018-08-28T15:22:13.310Z,44.10
2018-08-28T15:24:40.969Z,44.20
2018-08-28T15:27:08.702Z,45.20
2018-08-28T15:29:36.276Z,45.90
2018-08-28T15:32:03.996Z,45.60
2018-08-28T15:34:31.680Z,46.10
2018-08-28T15:36:59.290Z,46.20
2018-08-28T15:39:26.949Z,47.20
2018-08-28T15:41:54.596Z,47.40
2018-08-28T15:44:22.241Z,47.30
2018-08-28T15:46:49.911Z,47.50
2018-08-28T15:49:17.556Z,47.00
2018-08-28T15:51:45.209Z,49.10
2018-08-28T15:54:12.874Z,48.80
2018-08-28T15:56:40.537Z,49.10
2018-08-28T15:59:08.607Z,49.60
2018-08-28T16:01:36.205Z,49.70
2018-08-28T16:04:03.966Z,49.80
2018-08-28T16:06:31.610Z,50.80
2018-08-28T16:08:59.319Z,51.50
2018-08-28T16:13:54.566Z,51.30
2018-08-28T16:18:49.812Z,51.50
2018-08-28T16:21:17.456Z,52.40
2018-08-28T16:23:46.921Z,54.50
2018-08-28T16:26:14.570Z,54.00
2018-08-28T16:31:09.805Z,55.90
2018-08-28T16:43:32.432Z,59.50
2018-08-28T16:46:00.065Z,60.60
2018-08-28T16:48:27.767Z,63.10
2018-08-28T16:50:55.357Z,63.20
2018-08-28T16:53:23.057Z,64.20
2018-08-28T16:55:50.721Z,64.90
2018-08-28T16:58:18.351Z,65.10
2018-08-28T17:00:46.017Z,65.90
2018-08-28T17:03:13.710Z,67.80
2018-08-28T17:08:08.988Z,68.80
2018-08-28T17:10:36.665Z,69.50
2018-08-28T17:13:04.337Z,70.20
2018-08-28T17:17:59.613Z,71.10
2018-08-28T17:20:27.380Z,70.90
2018-08-28T17:22:55.018Z,72.70
2018-08-28T17:25:22.711Z,73.70
2018-08-28T17:27:50.402Z,74.90
2018-08-28T17:30:18.070Z,75.50
2018-08-28T17:32:45.775Z,77.90
2018-08-28T17:37:40.992Z,79.00
2018-08-28T17:40:08.706Z,79.90
2018-08-28T17:42:36.472Z,81.10
2018-08-28T17:45:04.210Z,82.40
2018-08-28T17:47:31.892Z,82.60
2018-08-28T17:57:23.219Z,88.10
2018-08-28T17:59:50.912Z,89.30
2018-08-28T18:02:18.597Z,89.70
2018-08-28T18:04:46.298Z,90.30
2018-08-28T18:07:14.023Z,90.70
2018-08-28T18:09:41.674Z,91.40
2018-08-28T18:12:09.387Z,91.60
2018-08-28T18:14:37.012Z,92.40
2018-08-28T18:17:05.072Z,93.00
2018-08-28T18:19:32.712Z,93.70
2018-08-28T18:24:28.031Z,95.10
2018-08-28T18:26:55.731Z,95.30
2018-08-28T18:29:23.400Z,96.20
2018-08-28T18:31:51.120Z,96.80
2018-08-28T18:34:18.882Z,97.90
2018-08-28T18:36:46.517Z,98.30
2018-08-28T18:41:41.855Z,99.00
2018-08-28T18:44:09.591Z,99.30
2018-08-28T18:46:37.263Z,99.80
2018-08-28T18:49:05.205Z,99.90
2018-08-28T18:51:32.833Z,99.90
2018-08-28T18:54:00.518Z,99.90
2018-08-28T18:56:28.220Z,99.90
2018-08-28T18:58:55.936Z,99.90
2018-08-28T19:01:23.560Z,99.90
2018-08-28T19:03:51.337Z,99.90
2018-08-28T19:06:18.995Z,99.90
2018-08-28T19:08:46.735Z,99.90
2018-08-28T19:11:14.366Z,99.90
2018-08-28T19:13:42.115Z,99.90
2018-08-28T19:16:09.832Z,99.90
2018-08-28T19:18:37.510Z,99.90
2018-08-28T19:21:05.191Z,99.90
2018-08-28T19:23:32.814Z,99.90
2018-08-28T19:28:28.132Z,99.90
2018-08-28T19:30:55.791Z,99.90
2018-08-28T19:35:51.042Z,99.90
2018-08-28T19:38:18.698Z,99.90
2018-08-28T19:43:14.038Z,99.90
2018-08-28T19:45:42.296Z,99.90
2018-08-28T19:48:09.977Z,99.90
2018-08-28T19:50:37.615Z,99.90
2018-08-28T19:53:05.381Z,99.90
2018-08-28T19:55:33.192Z,99.90
2018-08-28T19:58:00.821Z,99.90
2018-08-28T20:00:28.491Z,99.90
2018-08-28T20:02:56.203Z,99.90
2018-08-28T20:05:23.853Z,99.90
2018-08-28T20:07:51.548Z,99.90
2018-08-28T20:12:46.712Z,99.90
2018-08-28T20:15:14.312Z,99.90
2018-08-28T20:17:42.035Z,99.90
2018-08-28T20:20:09.767Z,99.90
2018-08-28T20:22:37.398Z,99.90
2018-08-28T20:25:05.336Z,99.90
2018-08-28T20:27:32.955Z,99.90
2018-08-28T20:30:00.617Z,99.90
2018-08-28T20:32:28.762Z,99.90
2018-08-28T20:37:24.028Z,99.90
2018-08-28T20:39:51.671Z,99.90
2018-08-28T20:42:19.298Z,99.90
2018-08-28T20:44:47.006Z,99.90
2018-08-28T20:47:14.651Z,99.90
2018-08-28T20:54:37.543Z,99.90
2018-08-28T20:57:05.207Z,99.90
2018-08-28T20:59:32.846Z,99.90
2018-08-28T21:02:00.677Z,99.90
2018-08-28T21:04:28.422Z,99.90
2018-08-28T21:06:56.104Z,99.90
2018-08-28T21:09:23.722Z,99.90
2018-08-28T21:11:51.412Z,99.90
2018-08-28T21:14:19.106Z,99.90
2018-08-28T21:16:46.783Z,99.90
2018-08-28T21:19:14.446Z,99.90
2018-08-28T21:21:42.217Z,99.90
2018-08-28T21:24:09.855Z,99.90
2018-08-28T21:29:05.157Z,99.90
2018-08-28T21:31:32.758Z,99.90
2018-08-28T21:36:28.000Z,99.90
2018-08-28T21:38:55.682Z,99.90
2018-08-28T21:41:23.337Z,99.90
2018-08-28T21:43:50.987Z,99.90
2018-08-28T21:46:18.693Z,99.90
2018-08-28T21:48:46.362Z,99.90
2018-08-28T21:51:14.036Z,99.90
2018-08-28T21:53:41.798Z,99.90
2018-08-28T21:56:09.512Z,99.90
2018-08-28T21:58:37.191Z,99.90
2018-08-28T22:03:38.493Z,99.90
2018-08-28T22:36:48.164Z,99.90
2018-08-28T22:39:15.910Z,99.90
2018-08-28T22:44:11.133Z,99.90
2018-08-28T22:46:38.814Z,99.90
2018-08-28T22:49:06.482Z,99.90
2018-08-28T22:51:34.146Z,99.90
2018-08-28T22:56:29.452Z,99.90
2018-08-28T22:58:57.124Z,99.90
2018-08-28T23:01:25.015Z,99.90
2018-08-28T23:08:47.762Z,99.90
2018-08-28T23:11:15.458Z,99.90
2018-08-28T23:13:43.133Z,99.90
2018-08-28T23:18:38.585Z,99.90
2018-08-28T23:21:06.273Z,99.90
2018-08-28T23:23:33.933Z,99.90
2018-08-28T23:28:29.222Z,99.90
2018-08-28T23:30:56.922Z,99.90
2018-08-28T23:33:24.620Z,99.90
2018-08-28T23:35:52.312Z,99.90
2018-08-28T23:38:20.041Z,99.90
2018-08-28T23:40:47.716Z,99.90
2018-08-28T23:43:15.347Z,99.90
2018-08-28T23:45:42.993Z,99.90
2018-08-28T23:48:10.726Z,99.90
2018-08-28T23:50:38.408Z,99.90
2018-08-28T23:53:06.066Z,99.90
2018-08-28T23:55:33.774Z,99.90
2018-08-28T23:58:01.459Z,99.90
